Time;durP1;ratioP1;P1;durP2;ratioP2;P2;SDS_P1;SDS_P2;PMS_P1;PMS_P2;Temp;Humidity;BMP_temperature;BMP_pressure;BME280_temperature;BME280_humidity;BME280_pressure;Samples;Min_cycle;Max_cycle;Signal;HPM_P1;HPM_P2
2023/11/18 00:00:55;;;;;;;7.93;5.10;;;;;;;3.61;100.00;102377.66;4879867;29;20071;-73
2023/11/18 00:03:26;;;;;;;7.13;5.13;;;;;;;3.61;100.00;102377.66;4865360;29;20049;-73
2023/11/18 00:05:53;;;;;;;8.55;5.15;;;;;;;3.61;100.00;102375.81;4890508;29;20033;-73
2023/11/18 00:08:25;;;;;;;9.15;5.40;;;;;;;3.61;100.00;102372.34;4884774;29;20940;-75
2023/11/18 00:10:58;;;;;;;8.88;5.28;;;;;;;3.63;100.00;102367.69;4895255;29;20036;-74
2023/11/18 00:13:28;;;;;;;8.55;5.38;;;;;;;3.63;100.00;102360.56;4898685;29;20060;-72
2023/11/18 00:16:02;;;;;;;8.88;5.55;;;;;;;3.66;100.00;102362.00;4880657;29;20044;-74
2023/11/18 00:18:42;;;;;;;7.50;5.18;;;;;;;3.65;100.00;102357.72;4900432;29;20127;-73
2023/11/18 00:21:11;;;;;;;8.00;5.30;;;;;;;3.66;100.00;102359.34;4898841;29;20048;-74
2023/11/18 00:23:48;;;;;;;9.50;5.40;;;;;;;3.66;100.00;102359.34;4884200;29;20051;-73
2023/11/18 00:26:25;;;;;;;10.60;6.03;;;;;;;3.67;100.00;102367.13;4895439;29;20048;-74
2023/11/18 00:29:01;;;;;;;7.55;5.10;;;;;;;3.66;100.00;102354.91;4915503;29;20102;-75
2023/11/18 00:31:29;;;;;;;7.88;5.32;;;;;;;3.65;100.00;102357.72;4854862;29;20567;-72
2023/11/18 00:33:56;;;;;;;9.60;5.43;;;;;;;3.68;100.00;102362.66;4864686;29;20112;-75
2023/11/18 00:36:29;;;;;;;11.52;5.85;;;;;;;3.67;100.00;102361.03;4881987;29;20045;-74
2023/11/18 00:38:55;;;;;;;8.43;5.28;;;;;;;3.66;100.00;102354.91;4877029;29;20084;-75
2023/11/18 00:41:24;;;;;;;10.10;5.97;;;;;;;3.69;100.00;102369.59;4891046;29;20567;-74
2023/11/18 00:43:50;;;;;;;7.78;4.70;;;;;;;3.66;100.00;102362.84;4881362;29;20033;-74
2023/11/18 00:46:22;;;;;;;8.80;6.40;;;;;;;3.66;100.00;102364.66;4863077;29;20052;-74
2023/11/18 00:48:54;;;;;;;7.50;5.13;;;;;;;3.65;100.00;102366.47;4870930;29;20082;-75
2023/11/18 00:51:29;;;;;;;6.30;4.50;;;;;;;3.66;100.00;102375.25;4862299;29;20060;-74
2023/11/18 00:54:11;;;;;;;8.18;5.63;;;;;;;3.65;100.00;102363.00;4876463;29;20047;-74
2023/11/18 00:56:49;;;;;;;8.73;5.00;;;;;;;3.64;100.00;102362.19;4889380;29;20036;-74
2023/11/18 00:59:20;;;;;;;7.47;5.05;;;;;;;3.62;100.00;102363.41;4866485;29;20052;-73
2023/11/18 01:01:49;;;;;;;9.20;5.20;;;;;;;3.64;100.00;102362.19;4874390;29;20048;-73
2023/11/18 01:04:16;;;;;;;9.52;5.65;;;;;;;3.64;100.00;102377.28;4859602;29;20045;-73
2023/11/18 01:06:44;;;;;;;8.20;4.80;;;;;;;3.63;100.00;102381.75;4879636;29;20049;-73
2023/11/18 01:09:19;;;;;;;9.85;4.75;;;;;;;3.64;100.00;102374.63;4899932;29;20668;-75
2023/11/18 01:11:45;;;;;;;;;;;;;;;3.64;100.00;102377.28;4873229;29;20108;-75
2023/11/18 01:14:11;;;;;;;6.35;3.95;;;;;;;3.65;100.00;102370.97;4899166;29;19927;-74
2023/11/18 01:16:37;;;;;;;9.75;4.93;;;;;;;3.64;100.00;102377.28;4864699;29;20089;-76
2023/11/18 01:19:08;;;;;;;6.88;4.80;;;;;;;3.64;100.00;102387.88;4898545;29;20048;-73
2023/11/18 01:21:42;;;;;;;7.97;5.72;;;;;;;3.65;100.00;102392.97;4882951;29;20053;-78
2023/11/18 01:24:12;;;;;;;9.40;4.93;;;;;;;3.64;100.00;102390.50;4883511;29;20040;-76
2023/11/18 01:26:52;;;;;;;9.05;5.10;;;;;;;3.64;100.00;102385.22;4884883;29;20497;-75
2023/11/18 01:29:27;;;;;;;8.35;5.43;;;;;;;3.66;100.00;102391.16;4880403;29;20044;-77
2023/11/18 01:31:58;;;;;;;6.88;4.80;;;;;;;3.65;100.00;102384.22;4897501;29;20040;-74
2023/11/18 01:34:31;;;;;;;9.40;6.20;;;;;;;3.65;100.00;102378.91;4893377;29;20040;-73
2023/11/18 01:36:58;;;;;;;7.15;4.78;;;;;;;3.68;100.00;102387.31;4878206;29;20047;-73
2023/11/18 01:39:27;;;;;;;9.88;5.28;;;;;;;3.67;100.00;102382.22;4887168;29;20044;-74
2023/11/18 01:41:59;;;;;;;10.23;5.78;;;;;;;3.68;100.00;102384.69;4858335;29;20044;-73
2023/11/18 01:44:33;;;;;;;8.35;5.57;;;;;;;3.66;100.00;102386.69;4897027;29;20049;-74
2023/11/18 01:47:12;;;;;;;9.35;5.55;;;;;;;3.66;100.00;102386.69;4883932;29;20036;-74
2023/11/18 01:49:43;;;;;;;;;;;;;;;3.68;100.00;102397.09;4876782;29;20045;-73
2023/11/18 01:52:10;;;;;;;7.07;4.63;;;;;;;3.69;100.00;102393.44;4898043;29;20010;-72
2023/11/18 01:54:38;;;;;;;9.15;5.78;;;;;;;3.72;100.00;102390.41;4878827;29;20052;-74
2023/11/18 01:57:09;;;;;;;8.27;5.10;;;;;;;3.71;100.00;102394.06;4874260;29;20045;-72
2023/11/18 01:59:37;;;;;;;8.25;5.40;;;;;;;3.71;100.00;102391.44;4862090;29;20044;-76
2023/11/18 02:02:05;;;;;;;9.30;5.30;;;;;;;3.69;100.00;102394.28;4886659;29;20036;-72
2023/11/18 02:04:30;;;;;;;7.93;5.45;;;;;;;3.70;100.00;102397.72;4864906;29;20056;-72
2023/11/18 02:06:58;;;;;;;8.05;4.95;;;;;;;3.70;100.00;102397.72;4881117;29;20044;-72
2023/11/18 02:09:28;;;;;;;8.38;5.32;;;;;;;3.66;100.00;102401.75;4862890;29;20071;-73
2023/11/18 02:11:59;;;;;;;10.20;5.05;;;;;;;3.68;100.00;102403.22;4877196;29;20071;-72
2023/11/18 02:14:33;;;;;;;10.18;5.20;;;;;;;3.67;100.00;102403.41;4892821;29;20044;-73
2023/11/18 02:17:03;;;;;;;8.23;4.80;;;;;;;3.67;100.00;102408.72;4878812;29;20147;-72
2023/11/18 02:19:30;;;;;;;7.60;4.90;;;;;;;3.65;100.00;102406.22;4856163;29;20064;-75
2023/11/18 02:21:58;;;;;;;8.15;4.25;;;;;;;3.65;100.00;102408.88;4897512;29;20033;-74
2023/11/18 02:24:37;;;;;;;9.13;4.43;;;;;;;3.68;100.00;102410.34;4892429;29;20048;-72
2023/11/18 02:27:11;;;;;;;7.40;4.28;;;;;;;3.67;100.00;102416.66;4883047;29;20035;-74
2023/11/18 02:29:42;;;;;;;7.63;4.55;;;;;;;3.66;100.00;102415.84;4862798;29;20049;-71
2023/11/18 02:32:49;;;;;;;7.57;4.50;;;;;;;3.65;100.00;102416.81;4885855;29;20045;-72
2023/11/18 02:35:30;;;;;;;6.63;4.03;;;;;;;3.66;100.00;102428.25;4893039;29;20075;-72
2023/11/18 02:37:59;;;;;;;6.93;4.45;;;;;;;3.66;100.00;102423.78;4873597;29;20040;-73
2023/11/18 02:40:45;;;;;;;7.43;4.90;;;;;;;3.66;100.00;102425.59;4887343;29;20469;-73
2023/11/18 02:43:11;;;;;;;;;;;;;;;3.64;100.00;102415.19;4892420;29;20051;-73
2023/11/18 02:45:41;;;;;;;8.48;4.75;;;;;;;3.66;100.00;102422.94;4841330;29;19919;-73
2023/11/18 02:48:10;;;;;;;4.82;3.17;;;;;;;3.66;100.00;102429.09;4894027;29;20032;-72
2023/11/18 02:50:38;;;;;;;9.63;5.53;;;;;;;3.65;100.00;102426.59;4882313;29;20044;-72
2023/11/18 02:53:05;;;;;;;6.90;4.53;;;;;;;3.66;100.00;102433.53;4865738;29;20044;-73
2023/11/18 02:55:31;;;;;;;7.90;4.80;;;;;;;3.67;100.00;102436.03;4849822;29;20067;-72
2023/11/18 03:01:04;;;;;;;8.02;4.78;;;;;;;3.67;100.00;102440.50;4885730;29;20111;-73
2023/11/18 03:03:57;;;;;;;6.43;4.20;;;;;;;3.66;100.00;102433.53;4884102;29;20040;-74
2023/11/18 03:06:26;;;;;;;8.98;4.93;;;;;;;3.66;100.00;102438.84;4902398;29;20503;-74
2023/11/18 03:09:07;;;;;;;9.60;5.22;;;;;;;3.67;100.00;102443.16;4877148;29;20056;-73
2023/11/18 03:11:34;;;;;;;8.13;5.05;;;;;;;3.66;100.00;102445.00;4897352;29;20083;-73
2023/11/18 03:14:04;;;;;;;9.00;5.10;;;;;;;3.65;100.00;102438.00;4876670;29;20658;-73
2023/11/18 03:16:31;;;;;;;7.82;5.35;;;;;;;3.66;100.00;102433.53;4857188;29;20694;-74
2023/11/18 03:19:04;;;;;;;8.85;5.30;;;;;;;3.68;100.00;102429.72;4904377;29;20044;-75
2023/11/18 03:21:32;;;;;;;8.77;5.15;;;;;;;3.68;100.00;102426.25;4902236;29;20096;-73
2023/11/18 03:24:03;;;;;;;9.40;5.22;;;;;;;3.69;100.00;102427.88;4881066;29;20120;-73
2023/11/18 03:26:32;;;;;;;6.90;5.18;;;;;;;3.68;100.00;102426.25;4890121;29;20036;-75
2023/11/18 03:28:58;;;;;;;;;;;;;;;3.68;100.00;102427.06;4866229;29;20052;-73
2023/11/18 03:31:23;;;;;;;8.07;5.07;;;;;;;3.68;100.00;102439.50;4879555;29;19923;-72
2023/11/18 03:33:49;;;;;;;11.95;5.68;;;;;;;3.67;100.00;102430.72;4882443;29;20045;-71
2023/11/18 03:36:18;;;;;;;9.75;6.10;;;;;;;3.68;100.00;102431.56;4884859;29;20134;-73
2023/11/18 03:38:45;;;;;;;9.32;5.47;;;;;;;3.66;100.00;102429.09;4881152;29;20088;-75
2023/11/18 03:41:11;;;;;;;7.78;4.90;;;;;;;3.68;100.00;102426.25;4870379;29;20040;-73
2023/11/18 03:43:37;;;;;;;8.13;5.70;;;;;;;3.70;100.00;102426.88;4860291;29;20756;-72
2023/11/18 03:46:03;;;;;;;;;;;;;;;3.69;100.00;102430.53;4882105;29;20123;-72
2023/11/18 03:48:30;;;;;;;9.82;5.35;;;;;;;3.69;100.00;102433.19;4885303;29;19926;-72
2023/11/18 03:50:56;;;;;;;9.80;5.63;;;;;;;3.68;100.00;102437.66;4884612;29;20787;-72
2023/11/18 03:53:24;;;;;;;8.63;5.75;;;;;;;3.68;100.00;102424.41;4899458;29;20084;-72
2023/11/18 03:55:53;;;;;;;9.30;5.75;;;;;;;3.68;100.00;102431.56;4882258;29;20951;-72
2023/11/18 03:58:22;;;;;;;9.23;6.13;;;;;;;3.68;100.00;102436.84;4879914;29;20056;-73
2023/11/18 04:00:53;;;;;;;10.60;6.25;;;;;;;3.67;100.00;102436.03;4900679;29;20033;-72
2023/11/18 04:03:20;;;;;;;9.23;5.80;;;;;;;3.68;100.00;102434.19;4869374;29;20052;-73
2023/11/18 04:05:47;;;;;;;9.30;6.50;;;;;;;3.68;100.00;102442.16;4899666;29;20159;-72
2023/11/18 04:08:13;;;;;;;11.15;5.78;;;;;;;3.68;100.00;102427.06;4865695;29;20139;-73
2023/11/18 04:10:42;;;;;;;10.27;6.25;;;;;;;3.68;100.00;102436.84;4899127;29;20053;-73
2023/11/18 04:13:13;;;;;;;10.07;5.55;;;;;;;3.69;100.00;102433.19;4906390;29;20032;-72
2023/11/18 04:15:39;;;;;;;8.57;5.40;;;;;;;3.71;100.00;102439.13;4874720;29;20063;-73
2023/11/18 04:18:06;;;;;;;10.05;5.63;;;;;;;3.71;100.00;102441.78;4870042;29;20157;-73
2023/11/18 04:20:32;;;;;;;9.88;4.63;;;;;;;3.69;100.00;102430.53;4898715;29;20125;-73
2023/11/18 04:22:59;;;;;;;9.82;5.50;;;;;;;3.69;100.00;102438.50;4874224;29;20037;-72
2023/11/18 04:25:28;;;;;;;9.02;5.72;;;;;;;3.69;100.00;102433.19;4864349;29;20064;-72
2023/11/18 04:27:55;;;;;;;9.93;5.50;;;;;;;3.64;100.00;102431.06;4890994;29;20032;-75
2023/11/18 04:30:21;;;;;;;;;;;;;;;3.66;100.00;102441.50;4865458;29;20048;-72
2023/11/18 04:32:51;;;;;;;11.35;5.63;;;;;;;3.64;100.00;102435.56;4864634;29;19929;-71
2023/11/18 04:35:22;;;;;;;9.52;4.78;;;;;;;3.63;100.00;102428.63;4875565;29;20360;-73
2023/11/18 04:37:48;;;;;;;9.30;5.47;;;;;;;3.63;100.00;102423.31;4898494;29;20068;-74
2023/11/18 04:40:16;;;;;;;8.55;5.05;;;;;;;3.61;100.00;102426.16;4894154;29;20043;-74
2023/11/18 04:42:55;;;;;;;8.95;5.10;;;;;;;3.59;100.00;102427.31;4880080;29;20036;-73
2023/11/18 04:45:21;;;;;;;7.00;4.18;;;;;;;3.60;100.00;102434.28;4846628;29;20434;-73
2023/11/18 04:47:51;;;;;;;7.40;5.07;;;;;;;3.59;100.00;102427.31;4882277;29;20044;-73
2023/11/18 04:50:17;;;;;;;8.05;5.15;;;;;;;3.55;100.00;102429.53;4876473;29;20518;-72
2023/11/18 04:52:43;;;;;;;8.55;5.40;;;;;;;3.51;100.00;102429.06;4879890;29;20071;-72
2023/11/18 04:55:12;;;;;;;;;;;;;;;3.48;100.00;102429.44;4902641;29;20040;-72
2023/11/18 04:57:40;;;;;;;9.88;5.05;;;;;;;3.43;100.00;102434.44;4877336;29;20014;-72
2023/11/18 05:00:11;;;;;;;9.18;5.18;;;;;;;3.37;100.00;102426.41;4877607;29;20054;-74
2023/11/18 05:02:39;;;;;;;10.05;5.22;;;;;;;3.33;100.00;102431.25;4865840;29;20123;-72
2023/11/18 05:05:06;;;;;;;8.88;5.30;;;;;;;3.33;100.00;102439.19;4894553;29;20044;-74
2023/11/18 05:07:39;;;;;;;;;;;;;;;3.28;100.00;102430.97;4890015;29;20092;-72
2023/11/18 05:10:33;;;;;;;7.78;4.57;;;;;;;3.21;100.00;102436.16;4895066;29;19942;-74
2023/11/18 05:13:02;;;;;;;10.07;6.00;;;;;;;3.19;100.00;102424.09;4844137;29;20048;-73
2023/11/18 05:15:31;;;;;;;7.78;5.05;;;;;;;3.15;100.00;102417.50;4904950;29;20056;-72
2023/11/18 05:18:01;;;;;;;9.80;5.88;;;;;;;3.11;100.00;102410.91;4892638;29;20080;-73
2023/11/18 05:20:29;;;;;;;9.02;5.63;;;;;;;3.07;100.00;102407.00;4895438;29;20059;-72
2023/11/18 05:22:59;;;;;;;8.27;4.90;;;;;;;3.08;100.00;102404.16;4898017;29;22934;-73
2023/11/18 05:25:29;;;;;;;7.45;5.25;;;;;;;3.08;100.00;102403.34;4898337;29;20068;-74
2023/11/18 05:27:55;;;;;;;9.05;6.00;;;;;;;3.08;100.00;102400.69;4875802;29;20040;-72
2023/11/18 05:30:23;;;;;;;9.13;4.70;;;;;;;3.08;100.00;102400.69;4895254;29;20068;-72
2023/11/18 05:32:49;;;;;;;9.63;5.53;;;;;;;3.04;100.00;102402.03;4875230;29;20127;-71
2023/11/18 05:35:18;;;;;;;10.45;6.00;;;;;;;2.98;100.00;102393.84;4892473;29;20116;-72
2023/11/18 05:37:44;;;;;;;11.48;6.47;;;;;;;2.98;100.00;102398.28;4857351;29;20173;-72
2023/11/18 05:40:15;;;;;;;9.30;5.30;;;;;;;2.98;100.00;102404.44;4890785;29;20056;-73
2023/11/18 05:42:46;;;;;;;7.75;5.00;;;;;;;2.97;100.00;102407.22;4878945;29;20459;-74
2023/11/18 05:45:18;;;;;;;8.30;5.50;;;;;;;2.94;100.00;102391.72;4878059;29;20044;-74
2023/11/18 05:47:46;;;;;;;9.93;5.90;;;;;;;2.92;100.00;102402.50;4860989;29;20116;-74
2023/11/18 05:50:14;;;;;;;8.63;5.00;;;;;;;2.91;100.00;102403.50;4892994;29;20083;-73
2023/11/18 05:52:40;;;;;;;8.38;5.68;;;;;;;2.90;100.00;102396.53;4887819;29;20048;-74
2023/11/18 05:55:06;;;;;;;9.23;5.72;;;;;;;2.86;100.00;102389.97;4857086;29;20044;-73
2023/11/18 05:57:35;;;;;;;8.60;5.30;;;;;;;2.82;100.00;102388.66;4887999;29;20044;-73
2023/11/18 06:00:05;;;;;;;9.80;5.07;;;;;;;2.84;100.00;102394.59;4890169;29;20031;-74
2023/11/18 06:02:39;;;;;;;8.23;4.60;;;;;;;2.82;100.00;102388.66;4890854;29;20097;-75
2023/11/18 06:05:05;;;;;;;9.57;5.72;;;;;;;2.79;100.00;102381.09;4876405;29;20048;-73
2023/11/18 06:07:33;;;;;;;9.02;5.68;;;;;;;2.81;100.00;102389.66;4890004;29;20147;-74
2023/11/18 06:10:05;;;;;;;9.35;6.05;;;;;;;2.80;100.00;102392.50;4893209;29;20960;-74
2023/11/18 06:12:32;;;;;;;9.23;5.68;;;;;;;2.79;100.00;102394.31;4852505;29;20129;-72
2023/11/18 06:14:58;;;;;;;9.82;5.97;;;;;;;2.77;100.00;102387.53;4883976;29;20045;-73
2023/11/18 06:17:27;;;;;;;9.35;5.93;;;;;;;2.76;100.00;102396.50;4860466;29;20040;-73
2023/11/18 06:20:17;;;;;;;9.05;5.82;;;;;;;2.73;100.00;102389.75;4891565;29;20578;-74
2023/11/18 06:22:42;;;;;;;9.55;5.68;;;;;;;2.70;100.00;102388.25;4868161;29;20040;-72
2023/11/18 06:25:09;;;;;;;9.27;5.75;;;;;;;2.69;100.00;102391.09;4892213;29;20040;-73
2023/11/18 06:27:38;;;;;;;9.73;5.95;;;;;;;2.68;100.00;102389.44;4877326;29;20047;-75
2023/11/18 06:30:08;;;;;;;8.80;5.78;;;;;;;2.64;100.00;102386.34;4876320;29;20064;-74
2023/11/18 06:32:40;;;;;;;8.90;5.28;;;;;;;2.62;100.00;102382.22;4860845;29;20085;-73
2023/11/18 06:35:11;;;;;;;9.15;5.47;;;;;;;2.58;100.00;102381.75;4892864;29;20120;-73
2023/11/18 06:37:40;;;;;;;8.43;5.50;;;;;;;2.53;100.00;102385.91;4861518;29;20028;-73
2023/11/18 06:40:18;;;;;;;9.18;6.15;;;;;;;2.45;100.00;102390.28;4882081;29;20056;-72
2023/11/18 06:42:47;;;;;;;9.50;5.93;;;;;;;2.44;100.00;102390.44;4881333;29;20592;-72
2023/11/18 06:45:17;;;;;;;10.32;6.40;;;;;;;2.41;100.00;102385.50;4894723;29;20043;-73
2023/11/18 06:47:47;;;;;;;9.50;6.05;;;;;;;2.38;100.00;102385.88;4873263;29;20032;-74
2023/11/18 06:50:15;;;;;;;10.43;6.40;;;;;;;2.31;100.00;102384.91;4876192;29;20052;-73
2023/11/18 06:52:43;;;;;;;9.27;5.80;;;;;;;2.27;100.00;102396.81;4874085;29;20083;-77
2023/11/18 06:55:17;;;;;;;10.05;6.35;;;;;;;2.23;100.00;102396.34;4890311;29;20087;-73
2023/11/18 06:57:44;;;;;;;9.55;6.35;;;;;;;2.21;100.00;102400.97;4877607;29;20043;-73
2023/11/18 07:00:13;;;;;;;9.35;6.05;;;;;;;2.19;100.00;102402.97;4868543;29;20041;-73
2023/11/18 07:02:40;;;;;;;11.00;5.95;;;;;;;2.18;100.00;102406.63;4876577;29;20503;-73
2023/11/18 07:05:09;;;;;;;9.85;5.85;;;;;;;2.14;100.00;102413.25;4857382;29;20077;-74
2023/11/18 07:07:37;;;;;;;12.93;6.00;;;;;;;2.13;100.00;102414.25;4896981;29;20037;-74
2023/11/18 07:10:04;;;;;;;9.75;6.13;;;;;;;2.11;100.00;102422.34;4873705;29;21430;-73
2023/11/18 07:12:38;;;;;;;9.65;5.68;;;;;;;2.09;100.00;102434.91;4892263;29;20043;-72
2023/11/18 07:15:05;;;;;;;12.68;6.60;;;;;;;2.10;100.00;102446.28;4873234;29;20079;-72
2023/11/18 07:17:35;;;;;;;11.45;6.97;;;;;;;2.09;100.00;102444.66;4891695;29;20032;-74
2023/11/18 07:20:02;;;;;;;9.45;6.60;;;;;;;2.04;100.00;102457.56;4858904;29;20044;-71
2023/11/18 07:22:29;;;;;;;12.20;6.63;;;;;;;2.07;100.00;102458.03;4875201;29;20566;-75
2023/11/18 07:24:57;;;;;;;12.57;7.60;;;;;;;2.08;100.00;102449.09;4872205;29;20684;-72
2023/11/18 07:27:24;;;;;;;10.63;6.00;;;;;;;2.05;100.00;102451.28;4875751;29;20117;-72
2023/11/18 07:29:51;;;;;;;11.13;7.03;;;;;;;2.07;100.00;102446.66;4877441;29;20835;-72
2023/11/18 07:32:19;;;;;;;11.23;6.20;;;;;;;2.05;100.00;102443.34;4896538;29;20044;-75
2023/11/18 07:34:48;;;;;;;10.68;6.35;;;;;;;1.98;100.00;102432.66;4865472;29;20060;-75
2023/11/18 07:37:16;;;;;;;9.38;6.05;;;;;;;1.95;100.00;102426.88;4891277;29;20051;-73
2023/11/18 07:39:45;;;;;;;10.00;5.82;;;;;;;1.95;100.00;102424.22;4877242;29;20072;-73
2023/11/18 07:42:15;;;;;;;11.48;6.00;;;;;;;1.96;100.00;102423.22;4877250;29;20063;-72
2023/11/18 07:44:42;;;;;;;11.45;6.55;;;;;;;1.97;100.00;102431.00;4866159;29;20563;-72
2023/11/18 07:47:11;;;;;;;10.48;6.45;;;;;;;1.98;100.00;102451.16;4888586;29;20048;-73
2023/11/18 07:49:37;;;;;;;8.82;5.45;;;;;;;2.01;100.00;102458.72;4874120;29;20033;-71
2023/11/18 07:52:04;;;;;;;11.30;6.45;;;;;;;1.96;100.00;102452.28;4877388;29;20044;-72
2023/11/18 07:54:29;;;;;;;12.35;6.20;;;;;;;1.95;100.00;102442.72;4879044;29;20570;-73
2023/11/18 07:56:57;;;;;;;9.70;6.35;;;;;;;1.95;100.00;102453.28;4871786;29;20735;-75
2023/11/18 07:59:27;;;;;;;10.68;6.05;;;;;;;1.96;100.00;102449.66;4887702;29;20041;-74
2023/11/18 08:02:00;;;;;;;10.68;6.07;;;;;;;1.99;100.00;102444.03;4893762;29;20036;-75
2023/11/18 08:04:26;;;;;;;9.55;6.07;;;;;;;1.96;100.00;102445.19;4906501;29;20064;-75
2023/11/18 08:06:57;;;;;;;10.07;6.18;;;;;;;1.99;100.00;102444.03;4892296;29;20077;-74
2023/11/18 08:09:25;;;;;;;12.18;6.03;;;;;;;2.01;100.00;102448.16;4872825;29;20177;-74
2023/11/18 08:11:53;;;;;;;10.90;6.50;;;;;;;2.05;100.00;102438.06;4881851;29;20573;-74
2023/11/18 08:14:19;;;;;;;11.52;6.50;;;;;;;2.07;100.00;102436.06;4891493;29;20048;-74
2023/11/18 08:16:45;;;;;;;11.07;6.00;;;;;;;2.15;100.00;102441.31;4861041;29;20044;-73
2023/11/18 08:19:10;;;;;;;10.30;6.18;;;;;;;2.13;100.00;102440.69;4871282;29;20463;-72
2023/11/18 08:21:40;;;;;;;10.82;6.20;;;;;;;2.18;100.00;102439.16;4903344;29;20041;-74
2023/11/18 08:24:09;;;;;;;9.80;6.05;;;;;;;2.22;100.00;102436.16;4895240;29;20067;-73
2023/11/18 08:26:39;;;;;;;10.77;6.10;;;;;;;2.20;100.00;102433.69;4885293;29;20056;-73
2023/11/18 08:29:12;;;;;;;11.30;6.30;;;;;;;2.27;100.00;102439.94;4884161;29;20323;-74
2023/11/18 08:31:40;;;;;;;9.68;5.70;;;;;;;2.32;100.00;102434.97;4850415;29;20045;-74
2023/11/18 08:34:07;;;;;;;10.32;6.10;;;;;;;2.34;100.00;102432.97;4862934;29;20064;-74
2023/11/18 08:36:33;;;;;;;;;;;;;;;2.34;100.00;102427.69;4866977;29;20048;-75
2023/11/18 08:39:01;;;;;;;9.57;5.72;;;;;;;2.30;100.00;102421.06;4864003;29;19919;-75
2023/11/18 08:41:54;;;;;;;9.95;5.72;;;;;;;2.34;100.00;102422.38;4860171;29;20578;-75
2023/11/18 08:44:27;;;;;;;11.68;6.55;;;;;;;2.37;100.00;102411.47;4889813;29;20119;-77
2023/11/18 08:46:59;;;;;;;10.30;6.25;;;;;;;2.37;100.00;102411.47;4881896;29;20048;-77
2023/11/18 08:49:33;;;;;;;8.93;6.00;;;;;;;2.40;100.00;102407.66;4865963;29;20131;-74
2023/11/18 08:51:59;;;;;;;9.65;6.10;;;;;;;2.45;100.00;102400.03;4895841;29;20919;-79
2023/11/18 08:54:37;;;;;;;11.32;6.60;;;;;;;2.49;100.00;102392.56;4877164;29;20040;-75
2023/11/18 08:57:23;;;;;;;11.52;6.55;;;;;;;2.57;100.00;102400.41;4888371;29;20048;-73
2023/11/18 08:59:58;;;;;;;10.00;6.20;;;;;;;2.65;100.00;102403.03;4872088;29;20162;-76
2023/11/18 09:02:29;;;;;;;9.85;6.07;;;;;;;2.70;100.00;102401.47;4883129;29;20057;-77
2023/11/18 09:04:57;;;;;;;13.10;6.55;;;;;;;2.75;100.00;102408.91;4878990;29;20133;-75
2023/11/18 09:07:40;;;;;;;9.77;5.38;;;;;;;2.82;100.00;102395.78;4866642;29;20511;-77
2023/11/18 09:10:06;;;;;;;8.95;5.57;;;;;;;2.92;100.00;102405.13;4878442;29;20054;-72
2023/11/18 09:12:35;;;;;;;9.02;5.63;;;;;;;3.03;100.00;102405.69;4875041;29;20036;-75
2023/11/18 09:15:03;;;;;;;9.20;5.15;;;;;;;3.05;100.00;102393.94;4873773;29;20135;-73
2023/11/18 09:17:29;;;;;;;10.00;5.82;;;;;;;3.11;100.00;102381.78;4878022;29;20052;-73
2023/11/18 09:19:56;;;;;;;9.65;5.45;;;;;;;3.17;100.00;102386.38;4875910;29;20049;-73
2023/11/18 09:22:28;;;;;;;9.38;5.43;;;;;;;3.20;100.00;102386.03;4864183;29;20048;-73
2023/11/18 09:25:09;;;;;;;14.07;6.80;;;;;;;3.23;100.00;102385.66;4872690;29;20040;-74
2023/11/18 09:27:51;;;;;;;10.55;5.90;;;;;;;3.29;100.00;102384.94;4857847;29;20111;-74
2023/11/18 09:30:17;;;;;;;9.77;5.43;;;;;;;3.33;100.00;102375.63;4863515;29;20056;-75
2023/11/18 09:32:47;;;;;;;10.45;5.55;;;;;;;3.38;100.00;102389.13;4859805;29;20036;-73
2023/11/18 09:35:21;;;;;;;9.68;5.43;;;;;;;3.41;100.00;102367.59;4887016;29;20064;-74
2023/11/18 09:37:48;;;;;;;8.88;5.63;;;;;;;3.47;100.00;102377.47;4885715;29;20104;-75
2023/11/18 09:40:16;;;;;;;;;;;;;;;3.52;100.00;102380.41;4877035;29;20041;-74
2023/11/18 09:43:09;;;;;;;9.18;5.32;;;;;;;3.58;100.00;102378.00;4880237;29;20381;-75
2023/11/18 09:45:39;;;;;;;8.07;4.93;;;;;;;3.68;100.00;102384.69;4876802;29;20101;-74
2023/11/18 09:48:17;;;;;;;9.48;5.80;;;;;;;3.75;100.00;102390.06;4877413;29;20044;-74
2023/11/18 09:50:50;;;;;;;9.60;5.13;;;;;;;3.81;100.00;102378.72;4891968;29;20040;-74
2023/11/18 09:53:25;;;;;;;8.57;5.70;;;;;;;3.89;100.00;102375.16;4872637;29;20476;-74
2023/11/18 09:56:03;;;;;;;8.52;5.55;;;;;;;3.95;100.00;102380.53;4886403;29;20607;-75
2023/11/18 09:58:41;;;;;;;11.02;5.82;;;;;;;4.04;100.00;102384.72;4876021;29;20504;-74
2023/11/18 10:01:13;;;;;;;8.77;5.03;;;;;;;4.10;100.00;102383.16;4855589;29;20039;-74
2023/11/18 10:03:43;;;;;;;7.90;5.50;;;;;;;4.19;100.00;102370.59;4858419;29;20044;-75
2023/11/18 10:06:11;;;;;;;9.95;5.68;;;;;;;4.25;100.00;102365.38;4859459;29;20073;-75
2023/11/18 10:08:45;;;;;;;8.38;5.00;;;;;;;4.29;100.00;102364.00;4889791;29;20032;-73
2023/11/18 10:11:13;;;;;;;8.23;5.10;;;;;;;4.28;100.00;102354.41;4884145;29;20029;-73
2023/11/18 10:13:40;;;;;;;7.32;5.00;;;;;;;4.37;100.00;102360.41;4875080;29;20135;-72
2023/11/18 10:16:08;;;;;;;9.52;6.20;;;;;;;4.45;100.00;102364.75;4868370;29;20490;-75
2023/11/18 10:18:38;;;;;;;8.02;5.30;;;;;;;4.46;100.00;102367.22;4887947;29;20041;-72
2023/11/18 10:21:08;;;;;;;7.63;5.28;;;;;;;4.51;100.00;102361.34;4880114;29;20064;-73
2023/11/18 10:23:37;;;;;;;8.85;4.97;;;;;;;4.53;100.00;102354.81;4863382;29;20139;-73
2023/11/18 10:26:07;;;;;;;8.02;4.85;;;;;;;4.55;100.00;102344.03;4862844;29;20410;-74
2023/11/18 10:28:37;;;;;;;7.07;4.53;;;;;;;4.59;100.00;102343.44;4885752;29;20048;-73
2023/11/18 10:31:09;;;;;;;5.85;4.45;;;;;;;4.59;100.00;102339.97;4891495;29;20615;-75
2023/11/18 10:33:41;;;;;;;7.15;4.13;;;;;;;4.60;100.00;102331.00;4895383;29;20096;-72
2023/11/18 10:36:25;;;;;;;6.25;4.47;;;;;;;4.63;100.00;102326.16;4862546;29;20063;-73
2023/11/18 10:38:55;;;;;;;6.18;3.88;;;;;;;4.71;100.00;102324.38;4891500;29;20036;-73
2023/11/18 10:41:22;;;;;;;7.72;3.95;;;;;;;4.79;100.00;102321.56;4894978;29;20108;-73
2023/11/18 10:44:05;;;;;;;6.57;3.70;;;;;;;4.85;100.00;102318.97;4877924;29;20123;-72
2023/11/18 10:46:32;;;;;;;6.68;3.70;;;;;;;4.92;100.00;102319.03;4899877;29;20046;-73
2023/11/18 10:48:59;;;;;;;6.55;4.63;;;;;;;4.96;100.00;102312.31;4875592;29;20518;-73
2023/11/18 10:51:26;;;;;;;5.28;3.95;;;;;;;5.02;100.00;102319.50;4856393;29;20064;-75
2023/11/18 10:53:53;;;;;;;5.10;3.55;;;;;;;5.04;100.00;102317.47;4878288;29;20124;-73
2023/11/18 10:56:24;;;;;;;6.97;3.33;;;;;;;5.10;100.00;102310.56;4885619;29;20036;-72
2023/11/18 10:58:52;;;;;;;6.60;4.45;;;;;;;5.13;100.00;102316.31;4858013;29;20140;-75
2023/11/18 11:01:42;;;;;;;6.05;3.83;;;;;;;5.21;100.00;102307.34;4880378;29;20040;-73
2023/11/18 11:04:16;;;;;;;7.05;3.67;;;;;;;5.20;100.00;102290.59;4857187;29;20049;-73
2023/11/18 11:06:52;;;;;;;5.28;3.45;;;;;;;5.28;100.00;102280.81;4857265;29;20135;-71
2023/11/18 11:09:27;;;;;;;4.95;3.50;;;;;;;5.39;100.00;102273.13;4877506;29;20040;-73
2023/11/18 11:12:06;;;;;;;5.30;3.45;;;;;;;5.41;100.00;102267.59;4868607;29;20181;-73
2023/11/18 11:14:41;;;;;;;5.03;3.47;;;;;;;5.48;100.00;102266.59;4883841;29;20041;-72
2023/11/18 11:17:14;;;;;;;4.57;3.15;;;;;;;5.52;100.00;102252.94;4871646;29;20140;-73
2023/11/18 11:19:55;;;;;;;4.80;3.50;;;;;;;5.58;100.00;102255.63;4892435;29;20108;-72
2023/11/18 11:22:27;;;;;;;6.50;3.78;;;;;;;5.60;100.00;102253.59;4877515;29;20056;-73
2023/11/18 11:25:35;;;;;;;4.82;3.25;;;;;;;5.62;100.00;102250.72;4897034;29;20032;-74
2023/11/18 11:28:21;;;;;;;7.80;3.47;;;;;;;5.61;100.00;102249.91;4901550;29;20477;-72
2023/11/18 11:30:59;;;;;;;6.05;3.40;;;;;;;5.63;100.00;102245.22;4873493;29;20049;-72
2023/11/18 11:33:27;;;;;;;5.30;3.20;;;;;;;5.68;100.00;102237.44;4853911;29;20028;-73
2023/11/18 11:35:59;;;;;;;4.85;3.45;;;;;;;5.70;100.00;102227.47;4893915;29;20127;-73
2023/11/18 11:38:28;;;;;;;4.35;3.08;;;;;;;5.73;100.00;102229.69;4879355;29;20036;-72
2023/11/18 11:40:57;;;;;;;4.53;2.80;;;;;;;5.64;100.00;102222.94;4880485;29;20501;-72
2023/11/18 11:43:27;;;;;;;5.53;3.22;;;;;;;5.60;100.00;102221.69;4895622;29;20781;-72
2023/11/18 11:45:57;;;;;;;4.72;3.08;;;;;;;5.59;100.00;102216.59;4898926;29;20044;-74